Historyczne dane pomiarowe

Dodano dane terminowe – wersja testowa.

Dane z okresu 1951-2019

Wersja bazy: 1.34 [2019-03-16, lista zmian], aktualizacja planowana na 2019-04-15

Dane meteo z obszaru Polski uzyskane na podstawie danych udostępnionych przez Instytut Meteorologii i Gospodarki Wodnej – Państwowy Instytut Badawczy.

 

Wybierz Datę:    

       

TemperaturaWilgotnośćWiatrCiśnienieOpadyŚniegCzas trwania zjawisk
 Stacja t tx tn tng RH VA  wxwx mslp ppp RRR   cm mm wxwxwxwxwxwxwx
1983-08-14 13.4 17.9 9.5 7.1 74.8- 3.3 6.3---- 0.0------------
1983-08-13 15.2 22.5 13.2 5.3 77.5- 5.3 6.0---- 5.4------------
1983-08-12 20.9 25.6 12.3 10.3 66.5- 2.3 4.7---- 14.2------------
1983-08-11 19.6 27.9 11.7 9.6 72.3- 2.7 0.3---- 0.0------------
1983-08-10 18.5 26.6 12.2 10.8 80.5- 2.0 0.7---- 0.0------------
1983-08-09 18.8 26.1 11.4 10.0 85.3- 2.7 1.0---- 6.5------------
1983-08-08 17.8 23.4 12.0 10.0 87.5- 5.3 1.3---- 2.9------------
1983-08-07 15.0 17.9 10.0 7.5 92.8- 7.7 1.7---- 4.2------------
1983-08-06 15.0 19.6 9.9 8.0 85.0- 7.3 1.7---- 0.2------------
1983-08-05 12.9 17.2 9.9 9.9 93.0- 7.7 2.3---- 0.1------------
1983-08-04 10.5 11.5 10.2 10.0 97.3- 8.0 5.3---- 21.3------------
1983-08-03 13.5 23.5 11.0 10.9 88.5- 8.0 5.0---- 37.2------------
1983-08-02 21.2 31.1 17.5 15.0 71.0- 7.0 2.7---- 3.9------------
1983-08-01 26.9 35.1 14.8 12.1 42.3- 2.7 1.7---- 0.9------------
1983-07-31 20.4 28.7 9.4 5.3 52.0- 0.0 2.3---- 0.0------------
1983-07-30 19.8 24.4 16.3 15.1 65.5- 4.0 4.0---- 0.0------------
1983-07-29 18.6 23.6 15.5 11.5 71.5- 4.0 4.3---- 1.0------------
1983-07-28 23.8 30.6 19.3 16.4 60.5- 2.7 3.0---- 0.0------------
1983-07-27 25.7 35.1 15.9 11.5 55.3- 5.0 2.3---- 0.0------------
1983-07-26 20.3 30.4 9.6 6.1 60.0- 0.0 0.7---- 0.0------------
1983-07-25 19.5 26.5 11.8 6.6 62.5- 0.0 1.0---- 0.0------------
1983-07-24 20.8 28.1 10.4 7.9 61.5- 2.7 2.0---- 0.0------------
1983-07-23 19.7 27.2 10.9 7.6 67.3- 0.0 3.3---- 0.0------------
1983-07-22 15.5 20.2 9.5 6.8 77.5- 7.7 2.3---- 0.0------------
1983-07-21 13.8 17.9 8.4 6.1 57.3- 4.3 2.7---- 0.0------------
1983-07-20 14.8 19.7 10.7 10.8 75.8- 7.7 4.0---- 2.7------------
1983-07-19 20.3 28.6 16.5 15.6 85.8- 7.3 2.7---- 4.2------------
1983-07-18 25.8 33.6 15.8 14.8 59.5- 3.0 1.3---- 5.0------------
1983-07-17 21.7 28.2 15.1 11.9 72.0- 5.3 2.0---- 0.0------------
1983-07-16 18.3 27.5 12.3 10.5 81.8- 7.0 2.0---- 2.5------------
1983-07-15 20.3 26.4 15.2 12.9 66.3- 2.7 2.3---- 0.0------------
1983-07-14 19.4 24.2 14.8 13.2 69.8- 6.3 3.3---- 0.0------------
1983-07-13 20.1 25.9 12.7 10.4 70.0- 4.7 2.7---- 0.0------------
1983-07-12 23.3 30.4 19.2 15.3 63.5- 6.3 3.7---- 4.7------------
1983-07-11 25.4 31.1 16.9 12.3 50.3- 3.3 2.7---- 0.0------------
1983-07-10 24.4 31.4 14.4 10.1 48.8- 3.0 2.0---- 0.0------------
1983-07-09 22.2 29.6 12.5 11.5 52.5- 0.0 1.7---- 0.0------------
1983-07-08 22.5 29.1 13.4 9.6 40.0- 0.0 2.7---- 0.0------------
1983-07-07 24.7 30.7 16.8 14.7 51.3- 1.7 2.3---- 0.0------------
1983-07-06 23.4 30.1 14.9 12.0 49.3- 0.0 2.3---- 0.0------------
1983-07-05 20.6 26.7 12.4 8.2 58.3- 1.0 2.7---- 0.0------------
1983-07-04 20.3 26.9 12.4 8.0 61.8- 3.7 2.0---- 0.0------------
1983-07-03 18.8 24.7 9.4 5.7 68.5- 6.0 0.3---- 0.0------------
1983-07-02 18.0 21.8 13.1 10.6 72.0- 6.7 1.3---- 0.0------------
1983-07-01 18.7 24.6 14.1 10.5 71.8- 6.3 1.0---- 1.9------------
1983-06-30 19.0 24.3 11.3 7.7 60.8- 5.3 2.0---- 0.0------------
1983-06-29 14.2 19.3 6.4 3.6 72.0- 2.3 2.7---- 0.0------------
1983-06-28 14.8 20.7 12.4 11.0 67.5- 5.0 4.3---- 0.0------------
1983-06-27 19.0 22.8 13.2 11.0 80.5- 8.0 3.0---- 7.0------------
1983-06-26 20.0 26.1 13.2 12.8 74.0- 4.3 1.3---- 0.0------------
1983-06-25 21.2 28.6 13.2 12.5 62.3- 5.7 2.7---- 0.0------------
1983-06-24 20.2 29.1 8.3 2.7 50.0- 0.0 0.7---- 0.0------------
1983-06-23 17.0 23.3 8.3 3.1 46.0- 0.0 2.0---- 0.0------------
1983-06-22 16.7 24.2 9.4 8.0 52.5- 0.7 3.3---- 0.0------------
1983-06-21 20.6 27.5 10.8 6.3 59.0- 1.3 1.7---- 0.0------------
1983-06-20 19.2 25.6 10.9 7.9 45.8- 2.3 2.0---- 0.0------------
1983-06-19 16.3 21.7 11.4 11.8 68.8- 4.7 3.0---- 0.0------------
1983-06-18 13.2 17.2 9.3 6.1 81.5- 7.3 1.7---- 0.0------------
1983-06-17 11.8 14.8 8.9 7.9 65.5- 6.3 2.3---- 0.0------------
1983-06-16 12.0 15.0 8.9 8.0 75.0- 5.7 2.3---- 0.0------------
387.6 ms

 

Źródłem pochodzenia danych jest Instytut Meteorologii i Gospodarki Wodnej – Państwowy Instytut Badawczy. Dane Instytutu Meteorologii i Gospodarki Wodnej – Państwowego Instytutu Badawczego zostały przetworzone.

Dane źródłowe można odnaleźć na stronie https://dane.imgw.pl